Main page
METAR-TAF:

METAR-TAF

Airports :

Tartu Airport

Tartu, Estonia

latitude: 58-18N, longitude: 026-44E, elevation: 59 m

Current weather observation

The report was made 27 minutes ago, at 20:50 UTC
Wind 18 kt from the Southwest
Temperature 6°C
Humidity 70%
Pressure 998 hPa
Visibility 10 km or more
Broken clouds at a height of 2800 ft
Overcast at a height of 4400 ft
light rain

METAR: EETU 172050Z 22018KT 9999 -RA BKN028 OVC044 06/01 Q0998

Time: 23:17 (21:17 UTC)

Forecast

The report was made 17 minutes ago, at 21:00 UTC
Forecast valid from 16 at 22 UTC to 17 at 04 UTC
Wind 20 kt from the South/Southwest with gusts up to 32 kt
Visibility: 7000 m
Overcast at a height of 700 ft
rain
Temporary
from 16 at 22 UTC to 17 at 04 UTC
Visibility: 3000 m
Overcast at a height of 500 ft
rain, drizzle, mist

TAF: EETU 162100Z 1622/1704 21020G32KT 7000 RA OVC007 TEMPO 1622/1704 3000 RADZ BR OVC005

Weather observations and forecasts of more than 4000 airports (METAR and TAF reports).

The available stations are represented by yellow and red dots on the map.

Hover mouse over dot to see the name of the station.

Then click to see weather observations and forecasts.

To change the map : click on the green buttons with a black cross to zoom in, on the green button with a dash to zoom out, or on the green arrows for adjacent maps.


METAR-TAF: